createdAt,value
2024-02-29T00:04:07.752Z,97.51
2024-02-29T00:09:09.580Z,97.11
2024-02-29T00:14:11.581Z,98.52
2024-02-29T00:19:13.770Z,97.72
2024-02-29T00:24:16.099Z,98.10
2024-02-29T00:29:18.114Z,98.85
2024-02-29T00:34:20.101Z,98.68
2024-02-29T00:39:22.378Z,98.68
2024-02-29T00:44:24.784Z,98.92
2024-02-29T00:49:26.785Z,99.20
2024-02-29T00:54:28.577Z,98.45
2024-02-29T00:59:30.399Z,98.58
2024-02-29T01:04:32.194Z,99.34
2024-02-29T01:09:33.975Z,99.35
2024-02-29T01:14:35.773Z,99.13
2024-02-29T01:19:37.548Z,99.87
2024-02-29T01:24:39.345Z,100.00
2024-02-29T01:29:41.191Z,99.62
2024-02-29T01:34:42.959Z,99.78
2024-02-29T01:39:44.841Z,99.95
2024-02-29T01:44:57.320Z,100.00
2024-02-29T01:50:04.329Z,100.00
2024-02-29T01:55:07.036Z,100.00
2024-02-29T02:00:10.274Z,100.00
2024-02-29T02:05:12.472Z,100.00
2024-02-29T02:10:14.288Z,100.00
2024-02-29T02:15:16.198Z,100.00
2024-02-29T02:20:18.971Z,100.00
2024-02-29T02:25:20.828Z,100.00
2024-02-29T02:30:22.681Z,100.00
2024-02-29T02:35:24.688Z,100.00
2024-02-29T02:40:26.505Z,100.00
2024-02-29T02:45:29.334Z,100.00
2024-02-29T02:50:31.321Z,100.00
2024-02-29T02:55:33.149Z,100.00
2024-02-29T03:00:35.295Z,100.00
2024-02-29T03:05:37.241Z,100.00
2024-02-29T03:10:38.970Z,100.00
2024-02-29T03:15:41.513Z,100.00
2024-02-29T03:20:43.615Z,100.00
2024-02-29T03:25:45.388Z,100.00
2024-02-29T03:30:47.231Z,100.00
2024-02-29T03:35:49.069Z,100.00
2024-02-29T03:40:52.451Z,100.00
2024-02-29T03:45:54.316Z,100.00
2024-02-29T03:50:56.113Z,100.00
2024-02-29T03:55:57.955Z,100.00
2024-02-29T04:00:59.747Z,100.00
2024-02-29T04:06:01.602Z,100.00
2024-02-29T04:11:03.854Z,100.00
2024-02-29T04:16:06.186Z,100.00
2024-02-29T04:21:07.990Z,100.00
2024-02-29T04:26:09.760Z,100.00
2024-02-29T04:31:11.579Z,100.00
2024-02-29T04:36:13.436Z,100.00
2024-02-29T04:41:15.312Z,100.00
2024-02-29T04:46:17.338Z,100.00
2024-02-29T04:51:19.310Z,100.00
2024-02-29T04:56:21.401Z,100.00
2024-02-29T05:01:23.546Z,100.00
2024-02-29T05:06:25.334Z,100.00
2024-02-29T05:11:27.404Z,100.00
2024-02-29T05:16:29.261Z,100.00
2024-02-29T05:21:31.002Z,100.00
2024-02-29T05:26:33.742Z,100.00
2024-02-29T05:31:35.530Z,100.00
2024-02-29T05:36:37.367Z,100.00
2024-02-29T05:41:39.132Z,100.00
2024-02-29T05:46:40.993Z,100.00
2024-02-29T05:51:42.812Z,100.00
2024-02-29T05:56:44.587Z,100.00
2024-02-29T06:01:46.537Z,100.00
2024-02-29T06:06:49.081Z,100.00
2024-02-29T06:11:51.263Z,100.00
2024-02-29T06:16:53.188Z,100.00
2024-02-29T06:21:55.003Z,100.00
2024-02-29T06:26:56.799Z,100.00
2024-02-29T06:31:58.782Z,100.00
2024-02-29T06:37:00.615Z,100.00
2024-02-29T06:42:02.375Z,100.00
2024-02-29T06:47:04.377Z,100.00
2024-02-29T06:52:06.283Z,100.00
2024-02-29T06:57:08.040Z,100.00
2024-02-29T07:02:10.031Z,100.00
2024-02-29T07:07:12.371Z,100.00
2024-02-29T07:12:14.198Z,100.00
2024-02-29T07:17:17.397Z,100.00
2024-02-29T07:22:19.839Z,100.00
2024-02-29T07:27:21.788Z,100.00
2024-02-29T07:32:23.718Z,100.00
2024-02-29T07:37:25.521Z,100.00
2024-02-29T07:42:27.483Z,100.00
2024-02-29T07:47:29.412Z,100.00
2024-02-29T07:52:31.197Z,100.00
2024-02-29T07:57:33.567Z,100.00
2024-02-29T08:02:35.366Z,100.00
2024-02-29T08:07:40.302Z,100.00
2024-02-29T08:12:46.283Z,100.00
2024-02-29T08:17:48.306Z,100.00
2024-02-29T08:22:55.719Z,100.00
2024-02-29T08:27:57.831Z,100.00
2024-02-29T08:32:59.919Z,100.00
2024-02-29T08:38:01.748Z,100.00
2024-02-29T08:43:04.053Z,100.00
2024-02-29T08:48:06.322Z,100.00
2024-02-29T08:53:08.095Z,100.00
2024-02-29T08:58:11.696Z,100.00
2024-02-29T09:03:16.462Z,100.00
2024-02-29T09:08:21.282Z,100.00
2024-02-29T09:13:30.472Z,100.00
2024-02-29T09:18:37.805Z,100.00
2024-02-29T09:23:39.866Z,100.00
2024-02-29T09:28:41.618Z,100.00
2024-02-29T09:33:43.801Z,100.00
2024-02-29T09:38:46.322Z,100.00
2024-02-29T09:43:48.216Z,100.00
2024-02-29T09:48:51.563Z,100.00
2024-02-29T09:53:55.136Z,100.00
2024-02-29T09:58:58.650Z,100.00
2024-02-29T10:04:02.802Z,100.00
2024-02-29T10:09:05.322Z,100.00
2024-02-29T10:14:19.411Z,100.00
2024-02-29T10:19:23.124Z,100.00
2024-02-29T10:24:25.151Z,100.00
2024-02-29T10:29:27.108Z,99.54
2024-02-29T10:34:28.999Z,98.62
2024-02-29T10:39:34.105Z,97.95
2024-02-29T10:44:36.910Z,97.01
2024-02-29T10:49:54.578Z,96.68
2024-02-29T10:55:19.127Z,96.38
2024-02-29T11:00:21.047Z,95.45
2024-02-29T11:05:22.700Z,94.11
2024-02-29T11:10:24.555Z,94.53
2024-02-29T11:15:27.784Z,93.83
2024-02-29T11:20:31.902Z,93.37
2024-02-29T11:25:34.085Z,92.42
2024-02-29T11:30:36.118Z,91.28
2024-02-29T11:35:37.983Z,90.81
2024-02-29T11:40:40.866Z,90.62
2024-02-29T11:45:42.704Z,89.67
2024-02-29T11:50:44.716Z,89.32
2024-02-29T11:55:47.823Z,88.89
2024-02-29T12:00:51.362Z,88.11
2024-02-29T12:05:53.413Z,87.68
2024-02-29T12:11:00.420Z,86.77
2024-02-29T12:16:02.454Z,85.30
2024-02-29T12:21:08.697Z,85.29
2024-02-29T12:26:15.335Z,84.79
2024-02-29T12:31:18.227Z,83.83
2024-02-29T12:36:25.613Z,82.86
2024-02-29T12:41:27.856Z,83.09
2024-02-29T12:46:29.857Z,81.91
2024-02-29T12:51:31.719Z,81.58
2024-02-29T12:56:33.846Z,80.75
2024-02-29T13:01:38.984Z,81.13
2024-02-29T13:06:41.361Z,80.32
2024-02-29T13:11:43.180Z,79.07
2024-02-29T13:16:45.038Z,79.32
2024-02-29T13:21:47.197Z,78.92
2024-02-29T13:26:49.168Z,77.69
2024-02-29T13:31:51.136Z,77.83
2024-02-29T13:36:53.469Z,77.11
2024-02-29T13:41:55.858Z,76.78
2024-02-29T13:46:57.868Z,76.75
2024-02-29T13:52:01.318Z,76.12
2024-02-29T13:57:03.142Z,74.68
2024-02-29T14:02:05.252Z,74.98
2024-02-29T14:07:09.929Z,72.78
2024-02-29T14:12:12.001Z,73.73
2024-02-29T14:17:14.179Z,73.22
2024-02-29T14:22:16.492Z,73.44
2024-02-29T14:27:20.044Z,73.04
2024-02-29T14:32:21.790Z,70.81
2024-02-29T14:37:23.928Z,72.09
2024-02-29T14:42:25.994Z,70.22
2024-02-29T14:47:29.547Z,70.53
2024-02-29T14:52:31.669Z,68.76
2024-02-29T14:57:33.595Z,69.94
2024-02-29T15:02:35.397Z,70.06
2024-02-29T15:07:37.747Z,70.05
2024-02-29T15:12:41.780Z,69.95
2024-02-29T15:17:44.083Z,69.47
2024-02-29T15:22:46.309Z,68.97
2024-02-29T15:27:54.760Z,69.35
2024-02-29T15:32:56.729Z,68.41
2024-02-29T15:37:58.955Z,68.87
2024-02-29T15:43:00.788Z,68.40
2024-02-29T15:48:02.699Z,68.75
2024-02-29T15:53:04.616Z,68.28
2024-02-29T15:58:06.461Z,69.16
2024-02-29T16:03:08.234Z,69.15
2024-02-29T16:08:10.045Z,68.31
2024-02-29T16:13:12.157Z,69.39
2024-02-29T16:18:14.013Z,69.74
2024-02-29T16:23:15.861Z,69.84
2024-02-29T16:28:19.165Z,69.42
2024-02-29T16:33:20.974Z,70.13
2024-02-29T16:38:22.775Z,70.50
2024-02-29T16:43:25.173Z,70.58
2024-02-29T16:48:28.328Z,71.64
2024-02-29T16:53:30.088Z,70.85
2024-02-29T16:58:32.010Z,71.51
2024-02-29T17:03:33.797Z,71.67
2024-02-29T17:08:36.117Z,71.73
2024-02-29T17:13:37.908Z,72.30
2024-02-29T17:18:39.911Z,72.86
2024-02-29T17:23:41.982Z,73.20
2024-02-29T17:28:44.095Z,73.03
2024-02-29T17:33:46.158Z,75.05
2024-02-29T17:38:47.940Z,75.34
2024-02-29T17:43:49.980Z,75.97
2024-02-29T17:48:51.783Z,76.62
2024-02-29T17:53:53.700Z,77.01
2024-02-29T17:58:55.507Z,77.17
2024-02-29T18:03:57.865Z,78.30
2024-02-29T18:08:59.631Z,78.30
2024-02-29T18:14:01.570Z,79.47
2024-02-29T18:19:03.342Z,79.55
2024-02-29T18:24:05.434Z,80.59
2024-02-29T18:29:07.234Z,81.34
2024-02-29T18:34:09.657Z,81.21
2024-02-29T18:39:15.070Z,81.66
2024-02-29T18:44:17.251Z,82.35
2024-02-29T18:49:20.967Z,83.09
2024-02-29T18:54:22.809Z,83.65
2024-02-29T18:59:24.647Z,84.21
2024-02-29T19:04:26.457Z,84.63
2024-02-29T19:09:28.330Z,85.05
2024-02-29T19:14:30.596Z,85.07
2024-02-29T19:19:32.376Z,85.86
2024-02-29T19:24:34.170Z,86.21
2024-02-29T19:29:36.843Z,86.61
2024-02-29T19:34:38.589Z,86.46
2024-02-29T19:39:40.628Z,87.28
2024-02-29T19:44:42.357Z,87.91
2024-02-29T19:49:44.088Z,88.18
2024-02-29T19:54:45.872Z,88.66
2024-02-29T19:59:47.830Z,88.51
2024-02-29T20:04:52.435Z,88.92
2024-02-29T20:09:55.523Z,89.31
2024-02-29T20:14:57.489Z,89.89
2024-02-29T20:19:59.234Z,90.49
2024-02-29T20:25:00.989Z,90.50
2024-02-29T20:30:02.926Z,91.26
2024-02-29T20:35:05.028Z,91.36
2024-02-29T20:40:08.106Z,91.15
2024-02-29T20:45:12.925Z,91.98
2024-02-29T20:50:16.147Z,92.16
2024-02-29T20:55:17.917Z,92.46
2024-02-29T21:00:20.045Z,92.02
2024-02-29T21:05:21.847Z,93.09
2024-02-29T21:10:23.853Z,93.19
2024-02-29T21:15:25.652Z,93.81
2024-02-29T21:20:27.566Z,93.92
2024-02-29T21:25:30.318Z,94.64
2024-02-29T21:30:32.830Z,94.41
2024-02-29T21:35:34.689Z,94.74
2024-02-29T21:40:36.472Z,94.73
2024-02-29T21:45:38.206Z,95.81
2024-02-29T21:50:41.808Z,96.05
2024-02-29T21:55:43.570Z,96.32
2024-02-29T22:00:45.363Z,95.95
2024-02-29T22:05:47.186Z,96.06
2024-02-29T22:10:49.537Z,96.14
2024-02-29T22:15:51.319Z,96.92
2024-02-29T22:20:53.143Z,97.05
2024-02-29T22:25:55.686Z,97.19
2024-02-29T22:30:57.460Z,97.22
2024-02-29T22:35:59.296Z,97.74
2024-02-29T22:41:01.090Z,97.70
2024-02-29T22:46:02.979Z,97.97
2024-02-29T22:51:05.213Z,98.23
2024-02-29T22:56:07.517Z,97.85
2024-02-29T23:01:11.227Z,98.20
2024-02-29T23:06:16.325Z,98.72
2024-02-29T23:11:18.140Z,98.53
2024-02-29T23:16:20.119Z,98.47
2024-02-29T23:21:22.074Z,99.25
2024-02-29T23:26:23.821Z,99.38
2024-02-29T23:31:25.615Z,99.59
2024-02-29T23:36:27.512Z,100.00
2024-02-29T23:41:29.250Z,99.23
2024-02-29T23:46:31.092Z,99.98
2024-02-29T23:51:33.091Z,100.00
2024-02-29T23:56:34.849Z,100.00
